West Palm Beach, FL (33404)

9:30 AM EST on December 06, 2016 (GMT -0500)
Rybovich Boat Company | | Change Station

Elev 10 ft 26.75 °N, 80.05 °W | Updated 25 seconds ago

Mostly Cloudy
Mostly Cloudy
80.7 °F
Feels Like 86 °F
N
9.8
Wind Variable Wind from SSW
Gusts 16.0 mph

Today
High -- | Low -- °F
--% Chance of Precip.
Yesterday
High -- | Low -- °F
Precip. -- in
Pressure 30.00 in
Visibility 10.0 miles
Clouds Mostly Cloudy 2100 ft
Mostly Cloudy 25000 ft
Heat Index 86 °F
Dew Point 74 °F
Humidity 81%
Rainfall 0.00 in
Snow Depth Not available.
6:55 AM 5:27 PM
Waxing Crescent, 42% visible
SPECI KPBI 061425Z 21015KT 10SM BKN021 BKN250 27/22 A3000 RMK AO2 T02670222
Pressure 30.00 in
Visibility 10.0 miles
Clouds Mostly Cloudy 2100 ft
Mostly Cloudy 25000 ft
Heat Index 86 °F
Dew Point 74 °F
Humidity 81%
Rainfall 0.00 in
Snow Depth Not available.
6:55 AM 5:27 PM
Waxing Crescent, 42% visible
SPECI KPBI 061425Z 21015KT 10SM BKN021 BKN250 27/22 A3000 RMK AO2 T02670222

10-Day Weather Forecast

Almanac

Astronomy

Dec. 06, 2016 Rise Set
Actual Time
Civil Twilight
Nautical Twilight
Astronomical Twilight
Moon
Length of Visible Light
Length of Day
Tomorrow will be .
, % of the Moon is Illuminated

Today's Extremes

State Highs State Lows

Community

WunderPhotos

Upload Photos

1,955,949 photos uploaded!

WunderBlog® & News

Nearby

Air Quality

  Air Quality AQ Index Pollutant
Not available.

Snow Depth

Station Depth Elevation

Earthquake Activity

City Distance Mag. Time & Date
Minimum magnitude displayed is 2.5.

Coastal Water Temperatures

Place Temperature

Stations

Nearby Weather Stations

Station Location Temp. Windchill Dew Point Humidity Wind Precip. Elev Updated Type
                   

Watches & Warnings

There are currently no watches in effect.